createdAt,value
2018-02-19T00:01:40.654Z,22.67
2018-02-19T00:04:43.139Z,21.33
2018-02-19T00:07:45.113Z,19.53
2018-02-19T00:10:47.051Z,19.80
2018-02-19T00:13:49.029Z,18.13
2018-02-19T00:16:50.970Z,19.13
2018-02-19T00:19:52.960Z,18.90
2018-02-19T00:22:54.950Z,17.77
2018-02-19T00:25:56.916Z,20.93
2018-02-19T00:28:59.067Z,22.70
2018-02-19T00:32:01.023Z,23.93
2018-02-19T00:35:03.017Z,19.53
2018-02-19T00:38:04.976Z,20.40
2018-02-19T00:41:06.943Z,19.73
2018-02-19T00:44:08.906Z,17.37
2018-02-19T00:47:10.850Z,17.60
2018-02-19T00:50:12.831Z,19.40
2018-02-19T00:53:14.813Z,18.07
2018-02-19T00:56:16.778Z,17.77
2018-02-19T00:59:18.755Z,16.93
2018-02-19T01:02:20.691Z,18.40
2018-02-19T01:05:22.725Z,18.07
2018-02-19T01:08:24.750Z,16.87
2018-02-19T01:11:26.699Z,16.80
2018-02-19T01:14:28.682Z,16.40
2018-02-19T01:17:30.632Z,15.63
2018-02-19T01:20:32.586Z,16.03
2018-02-19T01:23:34.578Z,17.50
2018-02-19T01:26:36.511Z,15.73
2018-02-19T01:29:38.506Z,17.23
2018-02-19T01:32:40.494Z,16.23
2018-02-19T01:35:42.518Z,16.53
2018-02-19T01:38:44.486Z,15.70
2018-02-19T01:41:46.466Z,16.23
2018-02-19T01:44:48.448Z,16.10
2018-02-19T01:47:50.415Z,17.63
2018-02-19T01:50:52.369Z,15.90
2018-02-19T01:53:54.425Z,16.90
2018-02-19T01:56:56.360Z,16.87
2018-02-19T01:59:58.355Z,16.50
2018-02-19T02:03:00.342Z,15.30
2018-02-19T02:06:02.308Z,15.00
2018-02-19T02:09:04.270Z,15.33
2018-02-19T02:12:06.237Z,15.20
2018-02-19T02:15:08.207Z,15.23
2018-02-19T02:18:10.177Z,15.70
2018-02-19T02:21:12.193Z,14.33
2018-02-19T02:24:14.085Z,14.77
2018-02-19T02:27:16.069Z,15.00
2018-02-19T02:30:18.030Z,17.63
2018-02-19T02:33:19.996Z,18.13
2018-02-19T02:36:21.967Z,16.43
2018-02-19T02:39:24.000Z,16.53
2018-02-19T02:42:25.999Z,16.33
2018-02-19T02:45:28.084Z,15.30
2018-02-19T02:48:30.025Z,14.87
2018-02-19T02:51:32.035Z,14.77
2018-02-19T02:54:34.071Z,14.87
2018-02-19T02:57:36.036Z,15.20
2018-02-19T03:00:38.027Z,14.63
2018-02-19T03:03:39.959Z,15.53
2018-02-19T03:06:42.004Z,14.57
2018-02-19T03:09:43.992Z,15.53
2018-02-19T03:12:46.030Z,15.17
2018-02-19T03:15:48.021Z,15.20
2018-02-19T03:18:50.026Z,15.50
2018-02-19T03:21:51.979Z,16.40
2018-02-19T03:24:53.997Z,16.20
2018-02-19T03:27:56.014Z,16.90
2018-02-19T03:30:57.975Z,16.50
2018-02-19T03:33:59.975Z,17.00
2018-02-19T03:37:02.037Z,16.27
2018-02-19T03:40:03.975Z,17.60
2018-02-19T03:43:06.162Z,18.13
2018-02-19T03:46:08.117Z,17.13
2018-02-19T03:49:10.084Z,18.20
2018-02-19T03:52:12.259Z,17.73
2018-02-19T03:55:14.219Z,18.77
2018-02-19T03:58:16.177Z,18.30
2018-02-19T04:01:18.144Z,17.30
2018-02-19T04:04:20.115Z,19.23
2018-02-19T04:07:22.084Z,19.43
2018-02-19T04:10:24.059Z,20.30
2018-02-19T04:13:26.007Z,18.63
2018-02-19T04:16:27.973Z,19.03
2018-02-19T04:19:29.967Z,18.27
2018-02-19T04:22:31.934Z,20.23
2018-02-19T04:25:33.854Z,17.00
2018-02-19T04:28:35.858Z,19.10
2018-02-19T04:31:37.830Z,20.20
2018-02-19T04:34:39.783Z,20.27
2018-02-19T04:37:41.791Z,19.83
2018-02-19T04:40:43.824Z,19.97
2018-02-19T04:43:45.811Z,19.37
2018-02-19T04:46:47.808Z,19.87
2018-02-19T04:49:49.827Z,20.57
2018-02-19T04:52:51.806Z,20.43
2018-02-19T04:55:53.943Z,19.57
2018-02-19T04:58:55.945Z,20.30
2018-02-19T05:01:57.897Z,19.47
2018-02-19T05:04:59.882Z,19.83
2018-02-19T05:08:02.038Z,20.10
2018-02-19T05:11:04.021Z,19.60
2018-02-19T05:14:05.980Z,19.97
2018-02-19T05:17:07.972Z,19.87
2018-02-19T05:20:10.001Z,20.17
2018-02-19T05:23:11.982Z,21.17
2018-02-19T05:26:13.920Z,18.37
2018-02-19T05:29:15.901Z,20.13
2018-02-19T05:32:17.873Z,20.80
2018-02-19T05:35:19.848Z,20.27
2018-02-19T05:38:21.775Z,20.17
2018-02-19T05:41:23.799Z,20.83
2018-02-19T05:44:25.847Z,21.57
2018-02-19T05:47:27.802Z,21.17
2018-02-19T05:50:29.765Z,19.40
2018-02-19T05:53:31.763Z,21.17
2018-02-19T05:56:33.815Z,19.97
2018-02-19T05:59:35.817Z,20.30
2018-02-19T06:02:37.716Z,19.33
2018-02-19T06:05:39.705Z,20.33
2018-02-19T06:08:41.662Z,20.97
2018-02-19T06:11:43.714Z,21.33
2018-02-19T06:14:45.674Z,22.33
2018-02-19T06:17:47.616Z,21.40
2018-02-19T06:20:49.622Z,20.13
2018-02-19T06:23:51.623Z,22.20
2018-02-19T06:26:53.587Z,20.83
2018-02-19T06:29:55.593Z,22.07
2018-02-19T06:32:57.621Z,20.40
2018-02-19T06:35:59.661Z,21.07
2018-02-19T06:39:01.756Z,19.93
2018-02-19T06:42:03.711Z,21.47
2018-02-19T06:45:05.689Z,21.33
2018-02-19T06:48:07.638Z,20.60
2018-02-19T06:51:09.754Z,20.10
2018-02-19T06:54:11.764Z,20.37
2018-02-19T06:57:13.733Z,20.63
2018-02-19T07:00:15.733Z,20.80
2018-02-19T07:03:17.660Z,21.63
2018-02-19T07:06:19.662Z,20.43
2018-02-19T07:09:21.617Z,20.63
2018-02-19T07:12:23.558Z,20.77
2018-02-19T07:15:25.672Z,20.17
2018-02-19T07:18:27.732Z,20.17
2018-02-19T07:21:29.702Z,19.10
2018-02-19T07:24:31.753Z,20.60
2018-02-19T07:27:33.720Z,21.17
2018-02-19T07:30:35.698Z,19.40
2018-02-19T07:33:37.667Z,19.60
2018-02-19T07:36:39.752Z,20.67
2018-02-19T07:39:41.812Z,18.80
2018-02-19T07:42:43.758Z,18.70
2018-02-19T07:45:45.770Z,18.67
2018-02-19T07:48:47.887Z,20.10
2018-02-19T07:51:49.947Z,19.27
2018-02-19T07:54:52.231Z,21.10
2018-02-19T07:57:54.195Z,20.50
2018-02-19T08:00:56.252Z,20.07
2018-02-19T08:03:58.230Z,19.37
2018-02-19T08:07:00.222Z,20.60
2018-02-19T08:10:02.141Z,21.13
2018-02-19T08:13:04.063Z,20.43
2018-02-19T08:16:06.092Z,18.80
2018-02-19T08:19:08.064Z,18.20
2018-02-19T08:22:10.130Z,18.97
2018-02-19T08:25:12.124Z,18.90
2018-02-19T08:28:14.159Z,20.03
2018-02-19T08:31:16.172Z,19.13
2018-02-19T08:34:18.211Z,17.77
2018-02-19T08:37:20.146Z,20.17
2018-02-19T08:40:22.089Z,18.23
2018-02-19T08:43:24.100Z,19.80
2018-02-19T08:46:26.203Z,18.97
2018-02-19T08:49:28.225Z,18.27
2018-02-19T08:52:30.187Z,17.20
2018-02-19T08:55:32.190Z,18.07
2018-02-19T08:58:34.231Z,17.37
2018-02-19T09:01:36.226Z,20.17
2018-02-19T09:04:38.166Z,17.13
2018-02-19T09:07:40.143Z,17.37
2018-02-19T09:10:42.206Z,18.23
2018-02-19T09:13:44.172Z,19.27
2018-02-19T09:16:46.155Z,18.93
2018-02-19T09:19:48.110Z,19.30
2018-02-19T09:22:50.085Z,19.03
2018-02-19T09:25:52.051Z,19.03
2018-02-19T09:28:54.054Z,19.70
2018-02-19T09:31:56.006Z,17.83
2018-02-19T09:34:58.041Z,20.40
2018-02-19T09:38:00.026Z,20.23
2018-02-19T09:41:01.962Z,20.50
2018-02-19T09:44:03.939Z,18.47
2018-02-19T09:47:05.870Z,20.30
2018-02-19T09:50:07.873Z,18.93
2018-02-19T09:53:09.815Z,21.03
2018-02-19T09:56:11.821Z,20.97
2018-02-19T09:59:13.769Z,19.87
2018-02-19T10:02:15.747Z,19.00
2018-02-19T10:05:17.692Z,19.33
2018-02-19T10:08:19.687Z,17.83
2018-02-19T10:11:21.636Z,18.87
2018-02-19T10:14:23.631Z,18.73
2018-02-19T10:17:25.599Z,18.67
2018-02-19T10:20:27.616Z,18.17
2018-02-19T10:23:29.610Z,18.70
2018-02-19T10:26:31.587Z,18.40
2018-02-19T10:29:33.522Z,18.73
2018-02-19T10:32:35.535Z,17.77
2018-02-19T10:35:37.557Z,16.97
2018-02-19T10:38:39.571Z,17.77
2018-02-19T10:41:41.523Z,15.47
2018-02-19T10:44:43.528Z,16.60
2018-02-19T10:47:45.418Z,16.10
2018-02-19T10:50:47.434Z,17.10
2018-02-19T10:53:49.462Z,15.93
2018-02-19T10:56:51.400Z,15.80
2018-02-19T10:59:53.408Z,18.63
2018-02-19T11:02:55.482Z,16.13
2018-02-19T11:05:57.432Z,14.77
2018-02-19T11:08:59.381Z,15.07
2018-02-19T11:12:01.368Z,15.57
2018-02-19T11:15:03.326Z,16.07
2018-02-19T11:18:05.332Z,14.63
2018-02-19T11:21:07.307Z,16.53
2018-02-19T11:24:09.284Z,16.77
2018-02-19T11:27:11.303Z,15.93
2018-02-19T11:30:13.414Z,17.27
2018-02-19T11:33:15.418Z,17.00
2018-02-19T11:36:17.339Z,16.23
2018-02-19T11:39:41.461Z,18.10
2018-02-19T11:42:44.176Z,16.70
2018-02-19T11:45:46.158Z,17.27
2018-02-19T11:48:48.114Z,15.87
2018-02-19T11:51:50.962Z,16.70
2018-02-19T11:54:52.950Z,15.70
2018-02-19T11:57:55.040Z,14.93
2018-02-19T12:00:56.981Z,14.53
2018-02-19T12:03:58.975Z,14.97
2018-02-19T12:07:00.942Z,13.93
2018-02-19T12:10:02.906Z,14.20
2018-02-19T12:13:04.880Z,13.90
2018-02-19T12:16:06.841Z,13.93
2018-02-19T12:19:08.782Z,13.60
2018-02-19T12:22:10.759Z,12.87
2018-02-19T12:25:12.734Z,13.23
2018-02-19T12:28:14.729Z,13.77
2018-02-19T12:31:16.746Z,14.13
2018-02-19T12:34:18.739Z,12.90
2018-02-19T12:37:20.703Z,13.47
2018-02-19T12:40:22.670Z,14.30
2018-02-19T12:43:24.644Z,13.67
2018-02-19T12:49:58.379Z,15.03
2018-02-19T12:53:00.485Z,13.60
2018-02-19T12:56:02.478Z,12.60
2018-02-19T12:59:04.691Z,11.23
2018-02-19T13:02:06.639Z,12.50
2018-02-19T13:05:10.358Z,11.78
2018-02-19T13:08:12.350Z,13.60
2018-02-19T13:11:14.280Z,13.75
2018-02-19T13:14:16.259Z,13.50
2018-02-19T13:17:18.211Z,14.23
2018-02-19T13:20:20.184Z,14.75
2018-02-19T13:23:22.140Z,15.75
2018-02-19T13:26:24.093Z,15.13
2018-02-19T13:29:27.305Z,13.32
2018-02-19T13:32:29.298Z,15.08
2018-02-19T13:35:31.312Z,14.55
2018-02-19T13:38:33.325Z,15.93
2018-02-19T13:41:35.266Z,15.85
2018-02-19T13:44:37.350Z,13.88
2018-02-19T13:47:39.317Z,16.55
2018-02-19T13:50:41.278Z,16.42
2018-02-19T13:53:43.263Z,16.50
2018-02-19T13:56:45.210Z,17.00
2018-02-19T13:59:47.166Z,17.37
2018-02-19T14:02:49.145Z,16.87
2018-02-19T14:05:51.115Z,16.93
2018-02-19T14:08:53.097Z,16.35
2018-02-19T14:11:55.461Z,16.25
2018-02-19T14:14:57.410Z,17.42
2018-02-19T14:17:59.409Z,15.95
2018-02-19T14:21:01.434Z,16.48
2018-02-19T14:24:03.444Z,15.43
2018-02-19T14:27:05.377Z,16.57
2018-02-19T14:30:07.378Z,16.67
2018-02-19T14:33:09.319Z,16.77
2018-02-19T14:36:11.295Z,16.35
2018-02-19T14:39:13.224Z,16.17
2018-02-19T14:42:15.216Z,15.28
2018-02-19T14:45:17.201Z,17.37
2018-02-19T14:48:19.250Z,15.48
2018-02-19T14:51:21.237Z,15.70
2018-02-19T14:54:23.224Z,16.32
2018-02-19T14:57:26.299Z,16.45
2018-02-19T15:00:28.642Z,15.90
2018-02-19T15:03:30.631Z,15.07
2018-02-19T15:06:32.592Z,16.60
2018-02-19T15:09:34.599Z,17.00
2018-02-19T15:12:36.622Z,16.27
2018-02-19T15:15:38.579Z,17.10
2018-02-19T15:18:40.562Z,15.77
2018-02-19T15:21:42.518Z,15.75
2018-02-19T15:24:44.500Z,17.62
2018-02-19T15:27:46.445Z,18.60
2018-02-19T15:30:48.448Z,17.05
2018-02-19T15:33:50.372Z,16.50
2018-02-19T15:36:52.296Z,16.57
2018-02-19T15:39:54.338Z,16.55
2018-02-19T15:42:57.487Z,17.12
2018-02-19T15:45:59.494Z,18.15
2018-02-19T15:49:01.453Z,16.97
2018-02-19T15:52:03.445Z,17.98
2018-02-19T15:55:05.353Z,16.80
2018-02-19T15:58:07.360Z,17.70
2018-02-19T16:01:09.300Z,19.12
2018-02-19T16:04:11.294Z,17.05
2018-02-19T16:07:13.347Z,17.35
2018-02-19T16:10:15.329Z,16.90
2018-02-19T16:13:17.438Z,18.65
2018-02-19T16:16:19.520Z,17.27
2018-02-19T16:19:21.543Z,17.23
2018-02-19T16:22:23.594Z,18.92
2018-02-19T16:25:25.657Z,17.60
2018-02-19T16:28:27.714Z,19.20
2018-02-19T16:31:29.701Z,19.05
2018-02-19T16:34:31.662Z,18.85
2018-02-19T16:37:33.621Z,17.90
2018-02-19T16:40:35.626Z,17.73
2018-02-19T16:43:37.670Z,17.55
2018-02-19T16:46:39.855Z,17.07
2018-02-19T16:49:41.905Z,16.93
2018-02-19T16:52:43.863Z,24.05
2018-02-19T16:55:45.812Z,19.23
2018-02-19T16:58:47.739Z,17.60
2018-02-19T17:01:50.161Z,20.23
2018-02-19T17:04:52.213Z,28.67
2018-02-19T17:07:54.154Z,20.03
2018-02-19T17:10:56.650Z,16.80
2018-02-19T17:13:58.633Z,17.27
2018-02-19T17:17:00.610Z,16.03
2018-02-19T17:20:02.586Z,16.40
2018-02-19T17:23:04.564Z,16.10
2018-02-19T17:26:06.537Z,18.05
2018-02-19T17:29:08.474Z,18.32
2018-02-19T17:32:10.553Z,18.62
2018-02-19T17:35:12.569Z,18.45
2018-02-19T17:38:15.007Z,21.30
2018-02-19T17:41:16.941Z,18.27
2018-02-19T17:44:18.930Z,17.20
2018-02-19T17:47:20.879Z,18.00
2018-02-19T17:50:22.885Z,18.82
2018-02-19T17:53:24.781Z,16.42
2018-02-19T17:56:28.249Z,17.42
2018-02-19T17:59:30.177Z,15.75
2018-02-19T18:02:32.161Z,17.60
2018-02-19T18:05:34.129Z,17.43
2018-02-19T18:08:36.089Z,17.23
2018-02-19T18:11:38.054Z,16.87
2018-02-19T18:14:40.017Z,16.10
2018-02-19T18:17:42.015Z,18.37
2018-02-19T18:20:44.012Z,18.15
2018-02-19T18:23:46.004Z,17.80
2018-02-19T18:26:47.966Z,18.03
2018-02-19T18:29:49.931Z,18.70
2018-02-19T18:32:51.925Z,19.57
2018-02-19T18:35:54.327Z,18.17
2018-02-19T18:38:57.467Z,18.00
2018-02-19T18:41:59.458Z,19.23
2018-02-19T18:45:01.429Z,18.33
2018-02-19T18:48:03.510Z,18.77
2018-02-19T18:51:05.641Z,18.37
2018-02-19T18:54:07.614Z,18.45
2018-02-19T18:57:09.679Z,17.60
2018-02-19T19:00:11.647Z,18.47
2018-02-19T19:03:13.750Z,18.33
2018-02-19T19:06:15.685Z,18.53
2018-02-19T19:09:17.655Z,18.13
2018-02-19T19:12:19.643Z,17.67
2018-02-19T19:15:21.649Z,17.90
2018-02-19T19:18:23.562Z,19.03
2018-02-19T19:21:26.671Z,19.20
2018-02-19T19:24:28.625Z,21.77
2018-02-19T19:27:30.709Z,20.33
2018-02-19T19:30:32.665Z,19.63
2018-02-19T19:33:34.680Z,18.10
2018-02-19T19:36:36.715Z,19.13
2018-02-19T19:39:38.679Z,20.00
2018-02-19T19:42:40.614Z,18.70
2018-02-19T19:45:42.566Z,17.27
2018-02-19T19:48:44.577Z,18.17
2018-02-19T19:51:46.526Z,18.63
2018-02-19T19:54:48.520Z,18.70
2018-02-19T19:57:50.884Z,19.27
2018-02-19T20:00:52.814Z,16.80
2018-02-19T20:03:54.782Z,19.10
2018-02-19T20:06:57.449Z,18.50
2018-02-19T20:12:41.915Z,17.90
2018-02-19T20:15:45.386Z,16.90
2018-02-19T20:18:48.614Z,17.00
2018-02-19T20:21:51.925Z,16.13
2018-02-19T20:24:55.251Z,16.67
2018-02-19T20:27:58.420Z,17.97
2018-02-19T20:31:01.637Z,18.32
2018-02-19T20:34:04.934Z,17.73
2018-02-19T20:37:08.213Z,17.17
2018-02-19T20:40:11.415Z,19.17
2018-02-19T20:43:14.662Z,17.53
2018-02-19T20:46:17.968Z,16.63
2018-02-19T20:49:21.124Z,17.73
2018-02-19T20:52:24.356Z,16.32
2018-02-19T20:55:28.674Z,18.67
2018-02-19T20:58:32.007Z,18.17
2018-02-19T21:01:35.211Z,16.90
2018-02-19T21:04:38.401Z,15.97
2018-02-19T21:07:41.605Z,18.43
2018-02-19T21:10:44.860Z,19.00
2018-02-19T21:13:48.055Z,18.30
2018-02-19T21:16:51.280Z,18.17
2018-02-19T21:19:54.451Z,18.45
2018-02-19T21:22:58.910Z,17.03
2018-02-19T21:26:02.258Z,17.30
2018-02-19T21:29:05.572Z,16.37
2018-02-19T21:32:08.812Z,15.90
2018-02-19T21:35:12.058Z,15.03
2018-02-19T21:38:15.360Z,16.67
2018-02-19T21:41:18.539Z,17.83
2018-02-19T21:44:21.865Z,18.57
2018-02-19T21:47:25.303Z,18.17
2018-02-19T21:50:28.535Z,16.73
2018-02-19T21:53:31.850Z,17.97
2018-02-19T21:56:35.021Z,17.30
2018-02-19T21:59:38.882Z,17.73
2018-02-19T22:02:42.092Z,19.00
2018-02-19T22:05:45.649Z,19.00
2018-02-19T22:08:48.933Z,19.83
2018-02-19T22:11:52.246Z,20.27
2018-02-19T22:14:55.538Z,19.57
2018-02-19T22:17:58.826Z,22.02
2018-02-19T22:21:02.139Z,24.27
2018-02-19T22:24:05.443Z,21.60
2018-02-19T22:27:08.759Z,20.27
2018-02-19T22:30:12.031Z,19.67
2018-02-19T22:33:15.340Z,18.07
2018-02-19T22:36:18.506Z,20.23
2018-02-19T22:39:21.757Z,20.47
2018-02-19T22:42:25.026Z,18.90
2018-02-19T22:45:28.305Z,17.27
2018-02-19T22:48:31.599Z,18.23
2018-02-19T22:51:34.920Z,17.07
2018-02-19T22:54:38.209Z,18.27
2018-02-19T22:57:41.503Z,17.00
2018-02-19T23:00:44.792Z,17.83
2018-02-19T23:03:48.079Z,16.13
2018-02-19T23:06:51.310Z,17.33
2018-02-19T23:09:54.510Z,16.37
2018-02-19T23:12:57.770Z,15.93
2018-02-19T23:16:01.034Z,16.37
2018-02-19T23:19:04.275Z,17.92
2018-02-19T23:22:07.568Z,20.17
2018-02-19T23:25:10.860Z,22.10
2018-02-19T23:28:14.154Z,21.07
2018-02-19T23:31:17.617Z,17.70
2018-02-19T23:34:20.863Z,16.90
2018-02-19T23:37:24.226Z,17.20
2018-02-19T23:40:27.496Z,17.83
2018-02-19T23:43:30.773Z,17.00
2018-02-19T23:46:34.064Z,16.83
2018-02-19T23:49:37.344Z,17.57
2018-02-19T23:52:40.612Z,16.63
2018-02-19T23:55:43.945Z,16.87
2018-02-19T23:58:47.251Z,18.03
